sensor_id;sensor_type;location;lat;lon;timestamp;pressure;altitude;pressure_sealevel;temperature;humidity
54856;BME280;40748;53.168;5.800;2022-12-07T00:01:44;101718.34;;;4.64;96.40
54856;BME280;40748;53.168;5.800;2022-12-07T00:04:14;101717.85;;;4.62;96.33
54856;BME280;40748;53.168;5.800;2022-12-07T00:09:14;101719.98;;;4.60;96.26
54856;BME280;40748;53.168;5.800;2022-12-07T00:11:43;101717.03;;;4.57;96.20
54856;BME280;40748;53.168;5.800;2022-12-07T00:14:14;101716.78;;;4.56;96.18
54856;BME280;40748;53.168;5.800;2022-12-07T00:19:13;101726.03;;;4.55;96.21
54856;BME280;40748;53.168;5.800;2022-12-07T00:26:43;101725.9;;;4.56;96.37
54856;BME280;40748;53.168;5.800;2022-12-07T00:31:43;101726.35;;;4.55;96.42
54856;BME280;40748;53.168;5.800;2022-12-07T00:34:14;101719.58;;;4.57;96.54
54856;BME280;40748;53.168;5.800;2022-12-07T00:36:43;101727.59;;;4.43;96.68
54856;BME280;40748;53.168;5.800;2022-12-07T00:39:13;101720.29;;;4.35;97.46
54856;BME280;40748;53.168;5.800;2022-12-07T00:41:43;101713.26000000001;;;4.42;98.63
54856;BME280;40748;53.168;5.800;2022-12-07T00:44:13;101703.88;;;4.48;98.44
54856;BME280;40748;53.168;5.800;2022-12-07T00:46:43;101696.61;;;4.58;98.30
54856;BME280;40748;53.168;5.800;2022-12-07T00:49:13;101697.12;;;4.63;97.91
54856;BME280;40748;53.168;5.800;2022-12-07T00:51:43;101701.33;;;4.74;97.73
54856;BME280;40748;53.168;5.800;2022-12-07T00:54:13;101696.73;;;4.72;97.48
54856;BME280;40748;53.168;5.800;2022-12-07T00:56:43;101694.67;;;4.78;96.95
54856;BME280;40748;53.168;5.800;2022-12-07T00:59:13;101693.64;;;4.79;96.91
54856;BME280;40748;53.168;5.800;2022-12-07T01:06:43;101690.34;;;4.75;96.17
54856;BME280;40748;53.168;5.800;2022-12-07T01:09:13;101689.14;;;4.71;95.96
54856;BME280;40748;53.168;5.800;2022-12-07T01:11:43;101684.05;;;4.65;95.79
54856;BME280;40748;53.168;5.800;2022-12-07T01:14:13;101680.75;;;4.64;95.71
54856;BME280;40748;53.168;5.800;2022-12-07T01:16:43;101691.86;;;4.30;95.69
54856;BME280;40748;53.168;5.800;2022-12-07T01:19:13;101694.65;;;4.38;97.44
54856;BME280;40748;53.168;5.800;2022-12-07T01:21:43;101688.14;;;4.48;97.80
54856;BME280;40748;53.168;5.800;2022-12-07T01:24:13;101690.58;;;4.55;97.78
54856;BME280;40748;53.168;5.800;2022-12-07T01:26:43;101690.81;;;4.68;97.79
54856;BME280;40748;53.168;5.800;2022-12-07T01:29:13;101682.4;;;4.75;97.22
54856;BME280;40748;53.168;5.800;2022-12-07T01:34:13;101678.61;;;4.79;96.94
54856;BME280;40748;53.168;5.800;2022-12-07T01:36:43;101675.95;;;4.77;96.72
54856;BME280;40748;53.168;5.800;2022-12-07T01:39:13;101675.23;;;4.78;96.65
54856;BME280;40748;53.168;5.800;2022-12-07T01:49:16;101685.24;;;4.77;96.58
54856;BME280;40748;53.168;5.800;2022-12-07T01:51:43;101685.24;;;4.66;96.76
54856;BME280;40748;53.168;5.800;2022-12-07T01:54:13;101694.65;;;4.54;97.72
54856;BME280;40748;53.168;5.800;2022-12-07T01:56:44;101694.48;;;4.58;98.63
54856;BME280;40748;53.168;5.800;2022-12-07T01:59:13;101685.49;;;4.72;99.07
54856;BME280;40748;53.168;5.800;2022-12-07T02:01:43;101680.25;;;4.79;98.60
54856;BME280;40748;53.168;5.800;2022-12-07T02:04:13;101676.67;;;4.66;98.20
54856;BME280;40748;53.168;5.800;2022-12-07T02:06:43;101676.67;;;4.71;98.91
54856;BME280;40748;53.168;5.800;2022-12-07T02:09:13;101674.61;;;4.79;98.89
54856;BME280;40748;53.168;5.800;2022-12-07T02:11:43;101670.0;;;4.77;98.26
54856;BME280;40748;53.168;5.800;2022-12-07T02:14:13;101673.65999999999;;;4.50;97.86
54856;BME280;40748;53.168;5.800;2022-12-07T02:16:46;101670.68000000001;;;4.57;99.05
54856;BME280;40748;53.168;5.800;2022-12-07T02:21:44;101672.58;;;4.50;98.11
54856;BME280;40748;53.168;5.800;2022-12-07T02:24:14;101673.32;;;4.45;98.04
54856;BME280;40748;53.168;5.800;2022-12-07T02:26:46;101675.9;;;4.60;98.39
54856;BME280;40748;53.168;5.800;2022-12-07T02:29:14;101679.66;;;4.62;97.76
54856;BME280;40748;53.168;5.800;2022-12-07T02:31:44;101681.12999999999;;;4.54;97.59
54856;BME280;40748;53.168;5.800;2022-12-07T02:34:14;101684.96;;;4.49;98.25
54856;BME280;40748;53.168;5.800;2022-12-07T02:36:43;101684.96;;;4.48;98.25
54856;BME280;40748;53.168;5.800;2022-12-07T02:41:44;101673.24;;;4.55;98.00
54856;BME280;40748;53.168;5.800;2022-12-07T02:44:13;101674.37999999999;;;4.53;97.81
54856;BME280;40748;53.168;5.800;2022-12-07T02:46:44;101663.79;;;4.62;97.73
54856;BME280;40748;53.168;5.800;2022-12-07T02:49:13;101663.79;;;4.67;97.70
54856;BME280;40748;53.168;5.800;2022-12-07T02:51:44;101659.76000000001;;;4.71;97.67
54856;BME280;40748;53.168;5.800;2022-12-07T02:54:14;101661.55;;;4.75;97.73
54856;BME280;40748;53.168;5.800;2022-12-07T02:56:44;101656.15000000001;;;4.83;97.50
54856;BME280;40748;53.168;5.800;2022-12-07T02:59:15;101658.91;;;4.85;97.20
54856;BME280;40748;53.168;5.800;2022-12-07T03:01:45;101653.94;;;4.86;96.78
54856;BME280;40748;53.168;5.800;2022-12-07T03:04:16;101653.94;;;4.77;96.78
54856;BME280;40748;53.168;5.800;2022-12-07T03:06:43;101652.33;;;4.75;96.70
54856;BME280;40748;53.168;5.800;2022-12-07T03:09:13;101651.58;;;4.67;96.39
54856;BME280;40748;53.168;5.800;2022-12-07T03:11:44;101657.44;;;4.66;96.30
54856;BME280;40748;53.168;5.800;2022-12-07T03:14:13;101654.14;;;4.56;96.13
54856;BME280;40748;53.168;5.800;2022-12-07T03:16:44;101659.07999999999;;;4.58;96.15
54856;BME280;40748;53.168;5.800;2022-12-07T03:19:14;101664.62;;;4.47;96.13
54856;BME280;40748;53.168;5.800;2022-12-07T03:21:44;101659.98;;;4.39;96.38
54856;BME280;40748;53.168;5.800;2022-12-07T03:24:14;101660.86;;;4.41;96.75
54856;BME280;40748;53.168;5.800;2022-12-07T03:26:46;101656.87000000001;;;4.53;96.90
54856;BME280;40748;53.168;5.800;2022-12-07T03:29:25;101648.46;;;4.36;96.54
54856;BME280;40748;53.168;5.800;2022-12-07T03:31:44;101648.46;;;4.35;96.63
54856;BME280;40748;53.168;5.800;2022-12-07T03:36:43;101651.09;;;4.36;96.90
54856;BME280;40748;53.168;5.800;2022-12-07T03:39:16;101644.08;;;4.48;97.19
54856;BME280;40748;53.168;5.800;2022-12-07T03:41:43;101642.26999999999;;;4.42;96.89
54856;BME280;40748;53.168;5.800;2022-12-07T03:44:13;101643.0;;;4.53;96.82
54856;BME280;40748;53.168;5.800;2022-12-07T03:46:44;101641.97;;;4.51;96.75
54856;BME280;40748;53.168;5.800;2022-12-07T03:49:14;101646.8;;;4.45;96.52
54856;BME280;40748;53.168;5.800;2022-12-07T03:51:44;101642.69;;;4.38;96.76
54856;BME280;40748;53.168;5.800;2022-12-07T03:54:14;101645.12;;;4.49;96.91
54856;BME280;40748;53.168;5.800;2022-12-07T03:56:43;101642.76999999999;;;4.55;96.61
54856;BME280;40748;53.168;5.800;2022-12-07T03:59:13;101636.5;;;4.60;96.22
54856;BME280;40748;53.168;5.800;2022-12-07T04:01:43;101635.26000000001;;;4.56;95.95
54856;BME280;40748;53.168;5.800;2022-12-07T04:04:13;101632.83;;;4.59;95.86
54856;BME280;40748;53.168;5.800;2022-12-07T04:06:43;101637.22;;;4.57;95.82
54856;BME280;40748;53.168;5.800;2022-12-07T04:09:13;101637.7;;;4.54;95.81
54856;BME280;40748;53.168;5.800;2022-12-07T04:11:43;101638.69;;;4.47;95.74
54856;BME280;40748;53.168;5.800;2022-12-07T04:14:13;101641.56;;;4.53;96.09
54856;BME280;40748;53.168;5.800;2022-12-07T04:16:43;101641.45999999999;;;4.55;95.94
54856;BME280;40748;53.168;5.800;2022-12-07T04:19:13;101638.31999999999;;;4.50;95.79
54856;BME280;40748;53.168;5.800;2022-12-07T04:21:43;101643.59;;;4.48;95.77
54856;BME280;40748;53.168;5.800;2022-12-07T04:24:13;101642.17;;;4.51;95.92
54856;BME280;40748;53.168;5.800;2022-12-07T04:29:13;101632.92;;;4.48;95.38
54856;BME280;40748;53.168;5.800;2022-12-07T04:31:43;101631.61;;;4.38;95.40
54856;BME280;40748;53.168;5.800;2022-12-07T04:36:43;101633.65;;;4.43;95.44
54856;BME280;40748;53.168;5.800;2022-12-07T04:39:17;101631.0;;;4.39;95.41
54856;BME280;40748;53.168;5.800;2022-12-07T04:44:13;101616.27;;;4.45;95.49
54856;BME280;40748;53.168;5.800;2022-12-07T04:46:43;101618.26999999999;;;4.42;95.25
54856;BME280;40748;53.168;5.800;2022-12-07T04:51:43;101617.33;;;4.40;95.02
54856;BME280;40748;53.168;5.800;2022-12-07T04:54:13;101628.41;;;4.38;94.96
54856;BME280;40748;53.168;5.800;2022-12-07T04:56:43;101628.41;;;4.26;95.02
54856;BME280;40748;53.168;5.800;2022-12-07T04:59:13;101631.06;;;4.08;95.60
54856;BME280;40748;53.168;5.800;2022-12-07T05:01:43;101633.74;;;4.14;97.06
54856;BME280;40748;53.168;5.800;2022-12-07T05:04:13;101639.79000000001;;;4.12;98.24
54856;BME280;40748;53.168;5.800;2022-12-07T05:06:43;101639.79000000001;;;4.14;98.24
54856;BME280;40748;53.168;5.800;2022-12-07T05:09:13;101640.7;;;4.05;98.68
54856;BME280;40748;53.168;5.800;2022-12-07T05:11:43;101629.52;;;4.13;99.92
54856;BME280;40748;53.168;5.800;2022-12-07T05:14:15;101629.74;;;4.33;99.72
54856;BME280;40748;53.168;5.800;2022-12-07T05:16:43;101633.78;;;4.43;99.03
54856;BME280;40748;53.168;5.800;2022-12-07T05:19:13;101633.34;;;4.36;98.24
54856;BME280;40748;53.168;5.800;2022-12-07T05:21:43;101630.64;;;4.43;98.24
54856;BME280;40748;53.168;5.800;2022-12-07T05:24:13;101633.83;;;4.31;98.44
54856;BME280;40748;53.168;5.800;2022-12-07T05:26:43;101625.81;;;4.43;98.51
54856;BME280;40748;53.168;5.800;2022-12-07T05:29:14;101620.62;;;4.56;98.32
54856;BME280;40748;53.168;5.800;2022-12-07T05:31:43;101612.7;;;4.54;97.60
54856;BME280;40748;53.168;5.800;2022-12-07T05:34:13;101610.49;;;4.52;97.26
54856;BME280;40748;53.168;5.800;2022-12-07T05:36:43;101616.94;;;4.53;97.20
54856;BME280;40748;53.168;5.800;2022-12-07T05:39:13;101614.53;;;4.51;96.94
54856;BME280;40748;53.168;5.800;2022-12-07T05:41:43;101618.17;;;4.45;96.77
54856;BME280;40748;53.168;5.800;2022-12-07T05:44:13;101617.66;;;4.50;96.82
54856;BME280;40748;53.168;5.800;2022-12-07T05:46:43;101609.45;;;4.47;96.55
54856;BME280;40748;53.168;5.800;2022-12-07T05:49:13;101608.03;;;4.51;96.46
54856;BME280;40748;53.168;5.800;2022-12-07T05:51:43;101608.2;;;4.49;96.08
54856;BME280;40748;53.168;5.800;2022-12-07T05:54:13;101610.11;;;4.31;95.88
54856;BME280;40748;53.168;5.800;2022-12-07T05:56:44;101607.5;;;4.35;96.32
54856;BME280;40748;53.168;5.800;2022-12-07T05:59:13;101607.5;;;4.37;96.32
54856;BME280;40748;53.168;5.800;2022-12-07T06:01:43;101603.41;;;4.33;96.43
54856;BME280;40748;53.168;5.800;2022-12-07T06:04:13;101598.22;;;4.38;96.53
54856;BME280;40748;53.168;5.800;2022-12-07T06:06:43;101597.02;;;4.39;96.25
54856;BME280;40748;53.168;5.800;2022-12-07T06:09:13;101594.28;;;4.35;96.01
54856;BME280;40748;53.168;5.800;2022-12-07T06:11:43;101594.05;;;4.34;95.91
54856;BME280;40748;53.168;5.800;2022-12-07T06:16:43;101596.06;;;4.32;95.80
54856;BME280;40748;53.168;5.800;2022-12-07T06:19:13;101593.73000000001;;;4.29;95.71
54856;BME280;40748;53.168;5.800;2022-12-07T06:21:43;101592.16;;;4.25;95.64
54856;BME280;40748;53.168;5.800;2022-12-07T06:24:13;101594.94;;;4.23;95.62
54856;BME280;40748;53.168;5.800;2022-12-07T06:26:43;101600.23;;;4.20;95.52
54856;BME280;40748;53.168;5.800;2022-12-07T06:29:13;101603.35;;;4.15;95.38
54856;BME280;40748;53.168;5.800;2022-12-07T06:31:43;101602.9;;;4.08;95.24
54856;BME280;40748;53.168;5.800;2022-12-07T06:34:14;101604.92;;;4.04;95.20
54856;BME280;40748;53.168;5.800;2022-12-07T06:36:43;101597.73;;;3.96;95.18
54856;BME280;40748;53.168;5.800;2022-12-07T06:39:13;101605.14;;;3.95;95.36
54856;BME280;40748;53.168;5.800;2022-12-07T06:41:43;101605.05;;;3.90;95.26
54856;BME280;40748;53.168;5.800;2022-12-07T06:44:13;101606.58;;;3.82;95.29
54856;BME280;40748;53.168;5.800;2022-12-07T06:46:43;101610.23;;;3.83;95.33
54856;BME280;40748;53.168;5.800;2022-12-07T06:49:13;101616.72;;;3.82;95.46
54856;BME280;40748;53.168;5.800;2022-12-07T06:51:43;101619.51000000001;;;3.61;95.38
54856;BME280;40748;53.168;5.800;2022-12-07T06:54:14;101619.32;;;3.57;95.98
54856;BME280;40748;53.168;5.800;2022-12-07T06:56:43;101616.97;;;3.58;96.47
54856;BME280;40748;53.168;5.800;2022-12-07T06:59:13;101617.61;;;3.64;96.58
54856;BME280;40748;53.168;5.800;2022-12-07T07:01:43;101613.79;;;3.65;96.46
54856;BME280;40748;53.168;5.800;2022-12-07T07:04:13;101615.52;;;3.75;96.62
54856;BME280;40748;53.168;5.800;2022-12-07T07:06:43;101612.19;;;3.82;96.24
54856;BME280;40748;53.168;5.800;2022-12-07T07:09:13;101607.34;;;3.88;96.00
54856;BME280;40748;53.168;5.800;2022-12-07T07:11:43;101614.17;;;3.91;95.91
54856;BME280;40748;53.168;5.800;2022-12-07T07:14:13;101619.12;;;3.87;95.79
54856;BME280;40748;53.168;5.800;2022-12-07T07:16:43;101612.3;;;3.82;95.99
54856;BME280;40748;53.168;5.800;2022-12-07T07:19:13;101613.53;;;3.87;95.99
54856;BME280;40748;53.168;5.800;2022-12-07T07:21:43;101603.89;;;3.93;96.24
54856;BME280;40748;53.168;5.800;2022-12-07T07:24:13;101606.98;;;3.97;96.26
54856;BME280;40748;53.168;5.800;2022-12-07T07:26:43;101605.52;;;4.01;96.20
54856;BME280;40748;53.168;5.800;2022-12-07T07:29:13;101600.87;;;4.08;96.26
54856;BME280;40748;53.168;5.800;2022-12-07T07:31:43;101601.92;;;4.10;96.13
54856;BME280;40748;53.168;5.800;2022-12-07T07:34:13;101605.07;;;4.11;95.99
54856;BME280;40748;53.168;5.800;2022-12-07T07:36:43;101604.28;;;4.08;95.85
54856;BME280;40748;53.168;5.800;2022-12-07T07:39:13;101609.05;;;4.03;95.84
54856;BME280;40748;53.168;5.800;2022-12-07T07:41:43;101616.97;;;3.99;95.75
54856;BME280;40748;53.168;5.800;2022-12-07T07:44:13;101622.56;;;4.01;96.10
54856;BME280;40748;53.168;5.800;2022-12-07T07:46:43;101623.28;;;3.96;95.96
54856;BME280;40748;53.168;5.800;2022-12-07T07:49:13;101624.53;;;3.97;96.01
54856;BME280;40748;53.168;5.800;2022-12-07T07:51:43;101627.66;;;4.00;96.14
54856;BME280;40748;53.168;5.800;2022-12-07T07:54:13;101622.70999999999;;;4.04;96.13
54856;BME280;40748;53.168;5.800;2022-12-07T07:56:43;101615.25;;;4.09;96.06
54856;BME280;40748;53.168;5.800;2022-12-07T07:59:14;101623.89;;;4.12;95.86
54856;BME280;40748;53.168;5.800;2022-12-07T08:06:43;101616.24;;;4.11;95.64
54856;BME280;40748;53.168;5.800;2022-12-07T08:09:13;101622.05;;;4.10;95.60
54856;BME280;40748;53.168;5.800;2022-12-07T08:11:43;101621.06;;;4.12;95.75
54856;BME280;40748;53.168;5.800;2022-12-07T08:14:13;101626.57;;;4.15;95.91
54856;BME280;40748;53.168;5.800;2022-12-07T08:16:43;101646.25;;;4.14;96.23
54856;BME280;40748;53.168;5.800;2022-12-07T08:19:13;101651.73;;;3.96;96.65
54856;BME280;40748;53.168;5.800;2022-12-07T08:21:43;101659.93999999999;;;3.87;97.93
54856;BME280;40748;53.168;5.800;2022-12-07T08:24:13;101671.25;;;3.97;99.04
54856;BME280;40748;53.168;5.800;2022-12-07T08:26:43;101667.28;;;4.04;99.34
54856;BME280;40748;53.168;5.800;2022-12-07T08:29:13;101654.26;;;4.31;99.22
54856;BME280;40748;53.168;5.800;2022-12-07T08:31:43;101639.81;;;4.40;98.37
54856;BME280;40748;53.168;5.800;2022-12-07T08:34:13;101633.14;;;4.51;97.80
54856;BME280;40748;53.168;5.800;2022-12-07T08:36:43;101628.49;;;4.58;97.41
54856;BME280;40748;53.168;5.800;2022-12-07T08:39:13;101627.72;;;4.56;97.09
54856;BME280;40748;53.168;5.800;2022-12-07T08:41:43;101627.57;;;4.61;96.94
54856;BME280;40748;53.168;5.800;2022-12-07T08:44:13;101623.61;;;4.62;96.89
54856;BME280;40748;53.168;5.800;2022-12-07T08:49:14;101622.41;;;4.65;96.74
54856;BME280;40748;53.168;5.800;2022-12-07T08:51:43;101619.65;;;4.66;96.51
54856;BME280;40748;53.168;5.800;2022-12-07T08:54:14;101616.64;;;4.67;96.35
54856;BME280;40748;53.168;5.800;2022-12-07T08:56:43;101620.09000000001;;;4.58;96.12
54856;BME280;40748;53.168;5.800;2022-12-07T08:59:13;101619.18;;;4.57;96.02
54856;BME280;40748;53.168;5.800;2022-12-07T09:01:43;101613.12000000001;;;4.58;96.18
54856;BME280;40748;53.168;5.800;2022-12-07T09:04:13;101613.95;;;4.60;96.08
54856;BME280;40748;53.168;5.800;2022-12-07T09:06:43;101614.78;;;4.61;95.84
54856;BME280;40748;53.168;5.800;2022-12-07T09:11:43;101611.41;;;4.60;95.65
54856;BME280;40748;53.168;5.800;2022-12-07T09:14:13;101613.39;;;4.57;95.61
54856;BME280;40748;53.168;5.800;2022-12-07T09:16:43;101609.52;;;4.58;95.57
54856;BME280;40748;53.168;5.800;2022-12-07T09:21:43;101607.51000000001;;;4.56;95.60
54856;BME280;40748;53.168;5.800;2022-12-07T09:24:13;101613.31;;;4.59;95.64
54856;BME280;40748;53.168;5.800;2022-12-07T09:26:43;101617.69;;;4.64;95.80
54856;BME280;40748;53.168;5.800;2022-12-07T09:29:13;101622.96;;;4.72;95.99
54856;BME280;40748;53.168;5.800;2022-12-07T09:31:43;101636.06;;;4.80;96.37
54856;BME280;40748;53.168;5.800;2022-12-07T09:34:13;101642.58;;;4.86;96.59
54856;BME280;40748;53.168;5.800;2022-12-07T09:36:43;101635.20999999999;;;4.93;96.67
54856;BME280;40748;53.168;5.800;2022-12-07T09:39:13;101641.03;;;4.95;96.55
54856;BME280;40748;53.168;5.800;2022-12-07T09:41:43;101638.79;;;4.99;96.51
54856;BME280;40748;53.168;5.800;2022-12-07T09:44:14;101639.67;;;5.02;96.38
54856;BME280;40748;53.168;5.800;2022-12-07T09:46:43;101639.47;;;5.01;96.23
54856;BME280;40748;53.168;5.800;2022-12-07T09:49:14;101643.07;;;4.97;96.20
54856;BME280;40748;53.168;5.800;2022-12-07T09:51:43;101639.35;;;5.01;96.60
54856;BME280;40748;53.168;5.800;2022-12-07T09:54:14;101635.56999999999;;;5.07;96.67
54856;BME280;40748;53.168;5.800;2022-12-07T09:56:43;101637.23;;;5.14;96.70
54856;BME280;40748;53.168;5.800;2022-12-07T09:59:14;101628.86;;;5.20;96.69
54856;BME280;40748;53.168;5.800;2022-12-07T10:01:43;101625.5;;;5.22;96.66
54856;BME280;40748;53.168;5.800;2022-12-07T10:04:14;101625.23;;;5.23;96.90
54856;BME280;40748;53.168;5.800;2022-12-07T10:06:43;101620.98999999999;;;5.29;96.78
54856;BME280;40748;53.168;5.800;2022-12-07T10:09:15;101619.65;;;5.27;96.65
54856;BME280;40748;53.168;5.800;2022-12-07T10:14:13;101616.87;;;5.37;96.80
54856;BME280;40748;53.168;5.800;2022-12-07T10:16:43;101617.48999999999;;;5.39;96.37
54856;BME280;40748;53.168;5.800;2022-12-07T10:19:18;101615.81;;;5.46;96.29
54856;BME280;40748;53.168;5.800;2022-12-07T10:21:44;101620.45000000001;;;5.59;96.82
54856;BME280;40748;53.168;5.800;2022-12-07T10:26:46;101620.48;;;5.67;96.61
54856;BME280;40748;53.168;5.800;2022-12-07T10:29:14;101620.65;;;5.83;97.42
54856;BME280;40748;53.168;5.800;2022-12-07T10:31:43;101618.69;;;5.88;97.17
54856;BME280;40748;53.168;5.800;2022-12-07T10:34:20;101621.47;;;5.87;97.07
54856;BME280;40748;53.168;5.800;2022-12-07T10:36:43;101621.82;;;5.93;96.74
54856;BME280;40748;53.168;5.800;2022-12-07T10:39:14;101619.08;;;5.98;96.55
54856;BME280;40748;53.168;5.800;2022-12-07T10:44:19;101610.36;;;6.02;95.92
54856;BME280;40748;53.168;5.800;2022-12-07T10:46:46;101609.19;;;6.03;95.70
54856;BME280;40748;53.168;5.800;2022-12-07T10:49:19;101596.73;;;6.06;95.59
54856;BME280;40748;53.168;5.800;2022-12-07T10:51:43;101595.59000000001;;;6.09;95.61
54856;BME280;40748;53.168;5.800;2022-12-07T10:54:15;101593.95;;;6.14;95.72
54856;BME280;40748;53.168;5.800;2022-12-07T10:56:47;101586.04000000001;;;6.17;95.67
54856;BME280;40748;53.168;5.800;2022-12-07T10:59:19;101582.5;;;6.20;95.60
54856;BME280;40748;53.168;5.800;2022-12-07T11:06:45;101571.04000000001;;;6.22;95.37
54856;BME280;40748;53.168;5.800;2022-12-07T11:09:24;101571.04000000001;;;6.23;95.37
54856;BME280;40748;53.168;5.800;2022-12-07T11:14:15;101563.37;;;6.24;95.26
54856;BME280;40748;53.168;5.800;2022-12-07T11:21:45;101550.56;;;6.25;95.03
54856;BME280;40748;53.168;5.800;2022-12-07T11:24:14;101560.42;;;6.26;95.02
54856;BME280;40748;53.168;5.800;2022-12-07T11:26:50;101564.78;;;6.28;95.10
54856;BME280;40748;53.168;5.800;2022-12-07T11:29:17;101559.28;;;6.35;95.47
54856;BME280;40748;53.168;5.800;2022-12-07T11:31:48;101561.98000000001;;;6.43;95.73
54856;BME280;40748;53.168;5.800;2022-12-07T11:34:15;101564.26;;;6.40;95.73
54856;BME280;40748;53.168;5.800;2022-12-07T11:36:44;101560.06999999999;;;6.31;95.82
54856;BME280;40748;53.168;5.800;2022-12-07T11:39:16;101558.24;;;6.36;96.04
54856;BME280;40748;53.168;5.800;2022-12-07T11:41:43;101557.34;;;6.46;96.19
54856;BME280;40748;53.168;5.800;2022-12-07T11:44:17;101550.2;;;6.52;96.49
54856;BME280;40748;53.168;5.800;2022-12-07T11:46:45;101557.36;;;6.59;96.33
54856;BME280;40748;53.168;5.800;2022-12-07T11:49:14;101553.59;;;6.62;96.00
54856;BME280;40748;53.168;5.800;2022-12-07T11:54:14;101545.03;;;6.70;95.85
54856;BME280;40748;53.168;5.800;2022-12-07T11:59:19;101543.45;;;6.75;95.96
54856;BME280;40748;53.168;5.800;2022-12-07T12:01:46;101543.45;;;6.83;95.96
54856;BME280;40748;53.168;5.800;2022-12-07T12:04:16;101533.33;;;6.92;96.05
54856;BME280;40748;53.168;5.800;2022-12-07T12:06:44;101536.42;;;6.99;96.07
54856;BME280;40748;53.168;5.800;2022-12-07T12:09:14;101536.42;;;6.96;96.21
54856;BME280;40748;53.168;5.800;2022-12-07T12:11:50;101530.59;;;6.99;96.02
54856;BME280;40748;53.168;5.800;2022-12-07T12:14:17;101523.58;;;7.08;95.69
54856;BME280;40748;53.168;5.800;2022-12-07T12:19:16;101519.06;;;7.11;95.25
54856;BME280;40748;53.168;5.800;2022-12-07T12:21:43;101533.8;;;7.01;95.04
54856;BME280;40748;53.168;5.800;2022-12-07T12:24:14;101525.78;;;6.96;94.91
54856;BME280;40748;53.168;5.800;2022-12-07T12:26:48;101523.8;;;6.82;94.72
54856;BME280;40748;53.168;5.800;2022-12-07T12:29:18;101518.86;;;6.78;94.68
54856;BME280;40748;53.168;5.800;2022-12-07T12:31:43;101515.5;;;6.76;94.06
54856;BME280;40748;53.168;5.800;2022-12-07T12:36:44;101505.47;;;6.82;94.29
54856;BME280;40748;53.168;5.800;2022-12-07T12:39:13;101498.20999999999;;;6.84;94.41
54856;BME280;40748;53.168;5.800;2022-12-07T12:46:46;101492.3;;;7.02;94.87
54856;BME280;40748;53.168;5.800;2022-12-07T12:51:44;101484.38;;;7.17;95.18
54856;BME280;40748;53.168;5.800;2022-12-07T12:54:14;101485.5;;;7.22;95.13
54856;BME280;40748;53.168;5.800;2022-12-07T12:56:45;101486.25;;;6.96;94.93
54856;BME280;40748;53.168;5.800;2022-12-07T13:01:43;101489.12;;;6.86;94.89
54856;BME280;40748;53.168;5.800;2022-12-07T13:04:17;101484.52;;;6.64;93.33
54856;BME280;40748;53.168;5.800;2022-12-07T13:06:44;101478.83;;;6.69;94.17
54856;BME280;40748;53.168;5.800;2022-12-07T13:09:17;101473.75;;;6.61;94.23
54856;BME280;40748;53.168;5.800;2022-12-07T13:11:44;101466.8;;;6.63;93.88
54856;BME280;40748;53.168;5.800;2022-12-07T13:24:13;101447.33;;;6.63;92.89
54856;BME280;40748;53.168;5.800;2022-12-07T13:26:43;101450.22;;;6.64;92.95
54856;BME280;40748;53.168;5.800;2022-12-07T13:29:14;101454.78;;;6.65;92.97
54856;BME280;40748;53.168;5.800;2022-12-07T13:31:43;101458.97;;;6.50;92.96
54856;BME280;40748;53.168;5.800;2022-12-07T13:36:43;101465.09;;;6.41;93.53
54856;BME280;40748;53.168;5.800;2022-12-07T13:39:17;101462.13;;;6.31;93.21
54856;BME280;40748;53.168;5.800;2022-12-07T13:41:43;101457.64;;;6.23;92.91
54856;BME280;40748;53.168;5.800;2022-12-07T13:44:14;101451.25;;;6.22;93.13
54856;BME280;40748;53.168;5.800;2022-12-07T13:46:44;101438.16;;;6.20;92.91
54856;BME280;40748;53.168;5.800;2022-12-07T13:49:16;101441.72;;;6.08;92.69
54856;BME280;40748;53.168;5.800;2022-12-07T13:51:43;101440.01;;;6.02;92.67
54856;BME280;40748;53.168;5.800;2022-12-07T13:54:13;101433.31;;;6.05;92.58
54856;BME280;40748;53.168;5.800;2022-12-07T13:56:43;101429.24;;;6.07;92.16
54856;BME280;40748;53.168;5.800;2022-12-07T13:59:14;101430.67;;;6.04;91.92
54856;BME280;40748;53.168;5.800;2022-12-07T14:01:44;101423.65999999999;;;6.02;91.87
54856;BME280;40748;53.168;5.800;2022-12-07T14:04:16;101422.06;;;5.99;91.80
54856;BME280;40748;53.168;5.800;2022-12-07T14:06:47;101423.33;;;5.97;91.56
54856;BME280;40748;53.168;5.800;2022-12-07T14:09:17;101415.91;;;5.93;91.56
54856;BME280;40748;53.168;5.800;2022-12-07T14:11:43;101415.91;;;5.92;91.62
54856;BME280;40748;53.168;5.800;2022-12-07T14:14:14;101419.11;;;5.89;91.52
54856;BME280;40748;53.168;5.800;2022-12-07T14:16:54;101414.22;;;5.84;91.42
54856;BME280;40748;53.168;5.800;2022-12-07T14:21:43;101402.95;;;5.74;91.40
54856;BME280;40748;53.168;5.800;2022-12-07T14:24:15;101395.73000000001;;;5.66;91.34
54856;BME280;40748;53.168;5.800;2022-12-07T14:26:44;101395.29;;;5.65;91.38
54856;BME280;40748;53.168;5.800;2022-12-07T14:29:18;101393.3;;;5.60;91.28
54856;BME280;40748;53.168;5.800;2022-12-07T14:31:43;101391.02;;;5.49;91.23
54856;BME280;40748;53.168;5.800;2022-12-07T14:34:13;101386.65999999999;;;5.48;91.32
54856;BME280;40748;53.168;5.800;2022-12-07T14:36:43;101390.23;;;5.44;91.35
54856;BME280;40748;53.168;5.800;2022-12-07T14:39:13;101388.05;;;5.40;91.31
54856;BME280;40748;53.168;5.800;2022-12-07T14:41:43;101385.39;;;5.37;91.30
54856;BME280;40748;53.168;5.800;2022-12-07T14:44:13;101385.39;;;5.31;91.28
54856;BME280;40748;53.168;5.800;2022-12-07T14:46:43;101383.7;;;5.28;91.32
54856;BME280;40748;53.168;5.800;2022-12-07T14:49:13;101383.89;;;5.25;91.35
54856;BME280;40748;53.168;5.800;2022-12-07T14:51:43;101382.11;;;5.16;91.32
54856;BME280;40748;53.168;5.800;2022-12-07T14:54:14;101377.72;;;5.15;91.39
54856;BME280;40748;53.168;5.800;2022-12-07T14:56:43;101377.19;;;5.08;91.34
54856;BME280;40748;53.168;5.800;2022-12-07T14:59:13;101374.64;;;5.02;91.38